sensor_id;sensor_type;location;lat;lon;timestamp;P1;durP1;ratioP1;P2;durP2;ratioP2
21593;SDS011;10959;51.328;7.322;2022-10-22T00:01:52;4.63;;;2.43;;
21593;SDS011;10959;51.328;7.322;2022-10-22T00:04:18;5.83;;;2.93;;
21593;SDS011;10959;51.328;7.322;2022-10-22T00:06:45;3.73;;;2.37;;
21593;SDS011;10959;51.328;7.322;2022-10-22T00:09:11;3.77;;;2.40;;
21593;SDS011;10959;51.328;7.322;2022-10-22T00:11:40;6.40;;;2.27;;
21593;SDS011;10959;51.328;7.322;2022-10-22T00:14:07;3.80;;;2.33;;
21593;SDS011;10959;51.328;7.322;2022-10-22T00:16:34;9.20;;;3.00;;
21593;SDS011;10959;51.328;7.322;2022-10-22T00:19:00;3.03;;;2.17;;
21593;SDS011;10959;51.328;7.322;2022-10-22T00:21:27;3.93;;;2.97;;
21593;SDS011;10959;51.328;7.322;2022-10-22T00:23:54;3.00;;;2.33;;
21593;SDS011;10959;51.328;7.322;2022-10-22T00:26:21;2.77;;;2.27;;
21593;SDS011;10959;51.328;7.322;2022-10-22T00:28:49;5.10;;;2.77;;
21593;SDS011;10959;51.328;7.322;2022-10-22T00:31:15;5.60;;;2.97;;
21593;SDS011;10959;51.328;7.322;2022-10-22T00:33:44;3.10;;;2.73;;
21593;SDS011;10959;51.328;7.322;2022-10-22T00:36:11;6.67;;;3.10;;
21593;SDS011;10959;51.328;7.322;2022-10-22T00:38:38;4.37;;;2.37;;
21593;SDS011;10959;51.328;7.322;2022-10-22T00:41:04;6.03;;;2.70;;
21593;SDS011;10959;51.328;7.322;2022-10-22T00:43:33;4.60;;;2.13;;
21593;SDS011;10959;51.328;7.322;2022-10-22T00:46:01;7.27;;;3.13;;
21593;SDS011;10959;51.328;7.322;2022-10-22T00:48:28;3.17;;;2.60;;
21593;SDS011;10959;51.328;7.322;2022-10-22T00:50:58;4.70;;;2.40;;
21593;SDS011;10959;51.328;7.322;2022-10-22T00:53:29;4.27;;;2.30;;
21593;SDS011;10959;51.328;7.322;2022-10-22T00:55:59;3.60;;;2.63;;
21593;SDS011;10959;51.328;7.322;2022-10-22T00:58:27;7.60;;;2.93;;
21593;SDS011;10959;51.328;7.322;2022-10-22T01:00:54;4.63;;;2.50;;
21593;SDS011;10959;51.328;7.322;2022-10-22T01:03:23;3.87;;;2.33;;
21593;SDS011;10959;51.328;7.322;2022-10-22T01:05:51;8.73;;;2.97;;
21593;SDS011;10959;51.328;7.322;2022-10-22T01:08:22;4.87;;;2.90;;
21593;SDS011;10959;51.328;7.322;2022-10-22T01:10:55;5.87;;;2.70;;
21593;SDS011;10959;51.328;7.322;2022-10-22T01:13:30;5.57;;;3.43;;
21593;SDS011;10959;51.328;7.322;2022-10-22T01:16:08;3.63;;;3.27;;
21593;SDS011;10959;51.328;7.322;2022-10-22T01:18:40;9.67;;;3.23;;
21593;SDS011;10959;51.328;7.322;2022-10-22T01:21:19;5.70;;;2.87;;
21593;SDS011;10959;51.328;7.322;2022-10-22T01:24:01;6.40;;;3.57;;
21593;SDS011;10959;51.328;7.322;2022-10-22T01:26:41;4.57;;;3.00;;
21593;SDS011;10959;51.328;7.322;2022-10-22T01:29:24;5.30;;;3.10;;
21593;SDS011;10959;51.328;7.322;2022-10-22T01:31:55;4.07;;;3.17;;
21593;SDS011;10959;51.328;7.322;2022-10-22T01:34:25;3.67;;;3.20;;
21593;SDS011;10959;51.328;7.322;2022-10-22T01:36:54;3.07;;;2.70;;
21593;SDS011;10959;51.328;7.322;2022-10-22T01:39:24;3.37;;;2.83;;
21593;SDS011;10959;51.328;7.322;2022-10-22T01:41:53;5.60;;;2.87;;
21593;SDS011;10959;51.328;7.322;2022-10-22T01:44:25;4.23;;;2.60;;
21593;SDS011;10959;51.328;7.322;2022-10-22T01:46:53;5.20;;;3.00;;
21593;SDS011;10959;51.328;7.322;2022-10-22T01:49:31;5.57;;;3.57;;
21593;SDS011;10959;51.328;7.322;2022-10-22T01:52:11;4.20;;;3.30;;
21593;SDS011;10959;51.328;7.322;2022-10-22T01:54:51;5.57;;;3.10;;
21593;SDS011;10959;51.328;7.322;2022-10-22T01:57:30;7.17;;;3.90;;
21593;SDS011;10959;51.328;7.322;2022-10-22T02:00:08;4.97;;;2.93;;
21593;SDS011;10959;51.328;7.322;2022-10-22T02:02:39;4.67;;;2.90;;
21593;SDS011;10959;51.328;7.322;2022-10-22T02:05:10;7.57;;;3.20;;
21593;SDS011;10959;51.328;7.322;2022-10-22T02:07:42;5.50;;;2.83;;
21593;SDS011;10959;51.328;7.322;2022-10-22T02:10:12;3.90;;;2.70;;
21593;SDS011;10959;51.328;7.322;2022-10-22T02:12:40;5.43;;;3.13;;
21593;SDS011;10959;51.328;7.322;2022-10-22T02:15:10;4.00;;;2.77;;
21593;SDS011;10959;51.328;7.322;2022-10-22T02:17:37;7.73;;;3.43;;
21593;SDS011;10959;51.328;7.322;2022-10-22T02:20:06;3.10;;;2.80;;
21593;SDS011;10959;51.328;7.322;2022-10-22T02:22:36;3.27;;;2.63;;
21593;SDS011;10959;51.328;7.322;2022-10-22T02:25:04;5.00;;;3.20;;
21593;SDS011;10959;51.328;7.322;2022-10-22T02:27:32;6.90;;;3.20;;
21593;SDS011;10959;51.328;7.322;2022-10-22T02:30:05;5.83;;;3.20;;
21593;SDS011;10959;51.328;7.322;2022-10-22T02:32:37;4.43;;;3.00;;
21593;SDS011;10959;51.328;7.322;2022-10-22T02:35:07;5.17;;;2.77;;
21593;SDS011;10959;51.328;7.322;2022-10-22T02:37:37;4.93;;;3.40;;
21593;SDS011;10959;51.328;7.322;2022-10-22T02:40:05;5.50;;;3.40;;
21593;SDS011;10959;51.328;7.322;2022-10-22T02:42:32;8.57;;;3.80;;
21593;SDS011;10959;51.328;7.322;2022-10-22T02:45:00;6.70;;;3.60;;
21593;SDS011;10959;51.328;7.322;2022-10-22T02:47:27;5.50;;;4.00;;
21593;SDS011;10959;51.328;7.322;2022-10-22T02:49:55;4.83;;;3.33;;
21593;SDS011;10959;51.328;7.322;2022-10-22T02:52:21;4.90;;;3.50;;
21593;SDS011;10959;51.328;7.322;2022-10-22T02:54:47;6.83;;;3.83;;
21593;SDS011;10959;51.328;7.322;2022-10-22T02:57:14;6.00;;;3.40;;
21593;SDS011;10959;51.328;7.322;2022-10-22T02:59:40;6.03;;;3.77;;
21593;SDS011;10959;51.328;7.322;2022-10-22T03:02:07;7.33;;;3.90;;
21593;SDS011;10959;51.328;7.322;2022-10-22T03:04:33;5.13;;;3.47;;
21593;SDS011;10959;51.328;7.322;2022-10-22T03:07:01;3.90;;;3.37;;
21593;SDS011;10959;51.328;7.322;2022-10-22T03:09:28;3.90;;;3.40;;
21593;SDS011;10959;51.328;7.322;2022-10-22T03:11:54;7.67;;;4.03;;
21593;SDS011;10959;51.328;7.322;2022-10-22T03:14:21;4.43;;;3.60;;
21593;SDS011;10959;51.328;7.322;2022-10-22T03:16:47;5.83;;;4.10;;
21593;SDS011;10959;51.328;7.322;2022-10-22T03:19:14;4.73;;;3.53;;
21593;SDS011;10959;51.328;7.322;2022-10-22T03:21:41;6.90;;;3.73;;
21593;SDS011;10959;51.328;7.322;2022-10-22T03:24:12;6.33;;;3.20;;
21593;SDS011;10959;51.328;7.322;2022-10-22T03:26:42;5.43;;;3.93;;
21593;SDS011;10959;51.328;7.322;2022-10-22T03:29:12;6.77;;;4.33;;
21593;SDS011;10959;51.328;7.322;2022-10-22T03:31:40;5.83;;;4.13;;
21593;SDS011;10959;51.328;7.322;2022-10-22T03:34:07;6.80;;;4.50;;
21593;SDS011;10959;51.328;7.322;2022-10-22T03:36:35;5.23;;;3.97;;
21593;SDS011;10959;51.328;7.322;2022-10-22T03:39:02;5.13;;;4.27;;
21593;SDS011;10959;51.328;7.322;2022-10-22T03:41:31;10.90;;;4.10;;
21593;SDS011;10959;51.328;7.322;2022-10-22T03:43:58;5.83;;;4.00;;
21593;SDS011;10959;51.328;7.322;2022-10-22T03:46:26;5.27;;;4.00;;
21593;SDS011;10959;51.328;7.322;2022-10-22T03:48:53;5.83;;;3.90;;
21593;SDS011;10959;51.328;7.322;2022-10-22T03:51:19;8.67;;;3.80;;
21593;SDS011;10959;51.328;7.322;2022-10-22T03:53:46;6.90;;;4.20;;
21593;SDS011;10959;51.328;7.322;2022-10-22T03:56:12;5.40;;;4.43;;
21593;SDS011;10959;51.328;7.322;2022-10-22T03:58:40;8.13;;;4.77;;
21593;SDS011;10959;51.328;7.322;2022-10-22T04:01:08;5.87;;;4.30;;
21593;SDS011;10959;51.328;7.322;2022-10-22T04:03:36;5.90;;;5.00;;
21593;SDS011;10959;51.328;7.322;2022-10-22T04:06:03;5.70;;;4.27;;
21593;SDS011;10959;51.328;7.322;2022-10-22T04:08:31;5.20;;;4.00;;
21593;SDS011;10959;51.328;7.322;2022-10-22T04:10:58;5.67;;;4.07;;
21593;SDS011;10959;51.328;7.322;2022-10-22T04:13:24;6.17;;;4.30;;
21593;SDS011;10959;51.328;7.322;2022-10-22T04:15:52;6.00;;;4.80;;
21593;SDS011;10959;51.328;7.322;2022-10-22T04:18:19;5.40;;;4.53;;
21593;SDS011;10959;51.328;7.322;2022-10-22T04:20:47;4.83;;;4.33;;
21593;SDS011;10959;51.328;7.322;2022-10-22T04:23:13;5.43;;;4.23;;
21593;SDS011;10959;51.328;7.322;2022-10-22T04:25:40;5.97;;;4.40;;
21593;SDS011;10959;51.328;7.322;2022-10-22T04:28:06;7.23;;;4.10;;
21593;SDS011;10959;51.328;7.322;2022-10-22T04:30:34;7.20;;;4.73;;
21593;SDS011;10959;51.328;7.322;2022-10-22T04:33:02;6.70;;;4.87;;
21593;SDS011;10959;51.328;7.322;2022-10-22T04:35:29;5.50;;;4.67;;
21593;SDS011;10959;51.328;7.322;2022-10-22T04:37:56;6.07;;;4.97;;
21593;SDS011;10959;51.328;7.322;2022-10-22T04:40:22;6.77;;;4.30;;
21593;SDS011;10959;51.328;7.322;2022-10-22T04:42:49;5.67;;;4.53;;
21593;SDS011;10959;51.328;7.322;2022-10-22T04:45:15;4.47;;;3.90;;
21593;SDS011;10959;51.328;7.322;2022-10-22T04:47:42;5.87;;;4.30;;
21593;SDS011;10959;51.328;7.322;2022-10-22T04:50:10;6.20;;;4.10;;
21593;SDS011;10959;51.328;7.322;2022-10-22T04:52:36;6.43;;;4.20;;
21593;SDS011;10959;51.328;7.322;2022-10-22T04:55:03;5.00;;;4.47;;
21593;SDS011;10959;51.328;7.322;2022-10-22T04:57:30;5.93;;;4.67;;
21593;SDS011;10959;51.328;7.322;2022-10-22T04:59:56;5.90;;;4.30;;
21593;SDS011;10959;51.328;7.322;2022-10-22T05:02:23;8.23;;;4.43;;
21593;SDS011;10959;51.328;7.322;2022-10-22T05:04:49;5.90;;;4.40;;
21593;SDS011;10959;51.328;7.322;2022-10-22T05:07:17;7.37;;;4.57;;
21593;SDS011;10959;51.328;7.322;2022-10-22T05:09:44;6.33;;;4.50;;
21593;SDS011;10959;51.328;7.322;2022-10-22T05:12:10;7.83;;;4.80;;
21593;SDS011;10959;51.328;7.322;2022-10-22T05:14:37;6.93;;;4.63;;
21593;SDS011;10959;51.328;7.322;2022-10-22T05:17:03;7.07;;;4.70;;
21593;SDS011;10959;51.328;7.322;2022-10-22T05:19:30;6.17;;;4.63;;
21593;SDS011;10959;51.328;7.322;2022-10-22T05:21:58;6.50;;;4.40;;
21593;SDS011;10959;51.328;7.322;2022-10-22T05:24:27;6.03;;;4.33;;
21593;SDS011;10959;51.328;7.322;2022-10-22T05:26:55;6.13;;;5.20;;
21593;SDS011;10959;51.328;7.322;2022-10-22T05:29:23;8.03;;;5.60;;
21593;SDS011;10959;51.328;7.322;2022-10-22T05:31:50;7.57;;;5.77;;
21593;SDS011;10959;51.328;7.322;2022-10-22T05:34:17;7.10;;;5.53;;
21593;SDS011;10959;51.328;7.322;2022-10-22T05:36:44;8.03;;;6.57;;
21593;SDS011;10959;51.328;7.322;2022-10-22T05:39:11;8.07;;;6.43;;
21593;SDS011;10959;51.328;7.322;2022-10-22T05:41:39;8.47;;;6.67;;
21593;SDS011;10959;51.328;7.322;2022-10-22T05:44:06;6.87;;;5.53;;
21593;SDS011;10959;51.328;7.322;2022-10-22T05:46:33;8.33;;;6.87;;
21593;SDS011;10959;51.328;7.322;2022-10-22T05:49:01;8.17;;;7.20;;
21593;SDS011;10959;51.328;7.322;2022-10-22T05:51:30;8.13;;;7.30;;
21593;SDS011;10959;51.328;7.322;2022-10-22T05:53:59;9.10;;;7.60;;
21593;SDS011;10959;51.328;7.322;2022-10-22T05:56:27;8.93;;;7.10;;
21593;SDS011;10959;51.328;7.322;2022-10-22T05:58:57;7.07;;;6.33;;
21593;SDS011;10959;51.328;7.322;2022-10-22T06:01:25;7.60;;;6.67;;
21593;SDS011;10959;51.328;7.322;2022-10-22T06:03:53;7.47;;;6.77;;
21593;SDS011;10959;51.328;7.322;2022-10-22T06:06:21;8.97;;;7.73;;
21593;SDS011;10959;51.328;7.322;2022-10-22T06:08:52;8.73;;;7.83;;
21593;SDS011;10959;51.328;7.322;2022-10-22T06:11:20;8.57;;;7.17;;
21593;SDS011;10959;51.328;7.322;2022-10-22T06:13:48;10.43;;;7.13;;
21593;SDS011;10959;51.328;7.322;2022-10-22T06:16:17;7.87;;;6.50;;
21593;SDS011;10959;51.328;7.322;2022-10-22T06:18:44;10.20;;;8.00;;
21593;SDS011;10959;51.328;7.322;2022-10-22T06:21:11;7.27;;;6.57;;
21593;SDS011;10959;51.328;7.322;2022-10-22T06:23:39;7.60;;;6.40;;
21593;SDS011;10959;51.328;7.322;2022-10-22T06:26:06;9.30;;;8.00;;
21593;SDS011;10959;51.328;7.322;2022-10-22T06:28:34;10.90;;;8.23;;
21593;SDS011;10959;51.328;7.322;2022-10-22T06:31:01;9.90;;;7.10;;
21593;SDS011;10959;51.328;7.322;2022-10-22T06:33:30;10.53;;;7.53;;
21593;SDS011;10959;51.328;7.322;2022-10-22T06:36:03;9.20;;;7.40;;
21593;SDS011;10959;51.328;7.322;2022-10-22T06:38:30;7.50;;;5.97;;
21593;SDS011;10959;51.328;7.322;2022-10-22T06:41:00;6.77;;;5.87;;
21593;SDS011;10959;51.328;7.322;2022-10-22T06:43:27;9.33;;;6.70;;
21593;SDS011;10959;51.328;7.322;2022-10-22T06:45:57;9.07;;;6.13;;
21593;SDS011;10959;51.328;7.322;2022-10-22T06:48:24;7.90;;;5.83;;
21593;SDS011;10959;51.328;7.322;2022-10-22T06:50:51;6.47;;;5.20;;
21593;SDS011;10959;51.328;7.322;2022-10-22T06:53:18;7.87;;;5.70;;
21593;SDS011;10959;51.328;7.322;2022-10-22T06:55:45;7.67;;;5.40;;
21593;SDS011;10959;51.328;7.322;2022-10-22T06:58:11;8.17;;;5.17;;
21593;SDS011;10959;51.328;7.322;2022-10-22T07:00:37;9.23;;;5.37;;
21593;SDS011;10959;51.328;7.322;2022-10-22T07:03:04;7.90;;;4.70;;
21593;SDS011;10959;51.328;7.322;2022-10-22T07:05:32;5.33;;;4.77;;
21593;SDS011;10959;51.328;7.322;2022-10-22T07:08:00;8.07;;;4.97;;
21593;SDS011;10959;51.328;7.322;2022-10-22T07:10:26;7.30;;;4.10;;
21593;SDS011;10959;51.328;7.322;2022-10-22T07:12:53;5.60;;;4.97;;
21593;SDS011;10959;51.328;7.322;2022-10-22T07:15:19;6.73;;;4.20;;
21593;SDS011;10959;51.328;7.322;2022-10-22T07:17:45;5.10;;;4.17;;
21593;SDS011;10959;51.328;7.322;2022-10-22T07:20:12;6.37;;;4.97;;
21593;SDS011;10959;51.328;7.322;2022-10-22T07:22:38;8.83;;;4.30;;
21593;SDS011;10959;51.328;7.322;2022-10-22T07:25:06;6.93;;;3.93;;
21593;SDS011;10959;51.328;7.322;2022-10-22T07:27:33;6.00;;;3.80;;
21593;SDS011;10959;51.328;7.322;2022-10-22T07:30:00;6.53;;;3.97;;
21593;SDS011;10959;51.328;7.322;2022-10-22T07:32:26;4.40;;;3.57;;
21593;SDS011;10959;51.328;7.322;2022-10-22T07:34:52;4.67;;;3.73;;
21593;SDS011;10959;51.328;7.322;2022-10-22T07:37:19;6.37;;;3.97;;
21593;SDS011;10959;51.328;7.322;2022-10-22T07:39:46;5.50;;;3.40;;
21593;SDS011;10959;51.328;7.322;2022-10-22T07:42:13;5.57;;;4.00;;
21593;SDS011;10959;51.328;7.322;2022-10-22T07:44:40;5.10;;;3.50;;
21593;SDS011;10959;51.328;7.322;2022-10-22T07:47:07;6.13;;;3.60;;
21593;SDS011;10959;51.328;7.322;2022-10-22T07:49:34;4.57;;;3.17;;
21593;SDS011;10959;51.328;7.322;2022-10-22T07:52:00;5.17;;;2.93;;
21593;SDS011;10959;51.328;7.322;2022-10-22T07:54:27;4.53;;;2.97;;
21593;SDS011;10959;51.328;7.322;2022-10-22T07:56:53;6.37;;;3.90;;
21593;SDS011;10959;51.328;7.322;2022-10-22T07:59:21;6.00;;;2.80;;
21593;SDS011;10959;51.328;7.322;2022-10-22T08:01:47;7.37;;;3.27;;
21593;SDS011;10959;51.328;7.322;2022-10-22T08:04:14;4.30;;;2.97;;
21593;SDS011;10959;51.328;7.322;2022-10-22T08:06:40;4.10;;;2.90;;
21593;SDS011;10959;51.328;7.322;2022-10-22T08:09:07;4.07;;;2.87;;
21593;SDS011;10959;51.328;7.322;2022-10-22T08:11:33;5.40;;;3.03;;
21593;SDS011;10959;51.328;7.322;2022-10-22T08:14:00;4.80;;;2.90;;
21593;SDS011;10959;51.328;7.322;2022-10-22T08:16:28;3.40;;;2.57;;
21593;SDS011;10959;51.328;7.322;2022-10-22T08:18:54;5.90;;;3.33;;
21593;SDS011;10959;51.328;7.322;2022-10-22T08:21:21;6.53;;;3.00;;
21593;SDS011;10959;51.328;7.322;2022-10-22T08:23:47;5.27;;;2.70;;
21593;SDS011;10959;51.328;7.322;2022-10-22T08:26:14;6.50;;;3.33;;
21593;SDS011;10959;51.328;7.322;2022-10-22T08:28:40;4.80;;;2.77;;
21593;SDS011;10959;51.328;7.322;2022-10-22T08:31:07;4.97;;;2.97;;
21593;SDS011;10959;51.328;7.322;2022-10-22T08:33:35;4.83;;;3.13;;
21593;SDS011;10959;51.328;7.322;2022-10-22T08:36:03;7.60;;;3.03;;
21593;SDS011;10959;51.328;7.322;2022-10-22T08:38:30;4.93;;;2.83;;
21593;SDS011;10959;51.328;7.322;2022-10-22T08:40:59;4.60;;;2.90;;
21593;SDS011;10959;51.328;7.322;2022-10-22T08:43:38;4.50;;;2.80;;
21593;SDS011;10959;51.328;7.322;2022-10-22T08:46:23;5.93;;;3.00;;
21593;SDS011;10959;51.328;7.322;2022-10-22T08:49:00;4.63;;;2.70;;
21593;SDS011;10959;51.328;7.322;2022-10-22T08:51:30;4.80;;;2.90;;
21593;SDS011;10959;51.328;7.322;2022-10-22T08:54:09;9.13;;;3.47;;
21593;SDS011;10959;51.328;7.322;2022-10-22T08:56:44;4.40;;;2.83;;
21593;SDS011;10959;51.328;7.322;2022-10-22T08:59:13;3.80;;;2.77;;
21593;SDS011;10959;51.328;7.322;2022-10-22T09:01:48;6.23;;;2.73;;
21593;SDS011;10959;51.328;7.322;2022-10-22T09:04:21;3.67;;;2.40;;
21593;SDS011;10959;51.328;7.322;2022-10-22T09:06:52;5.00;;;2.93;;
21593;SDS011;10959;51.328;7.322;2022-10-22T09:09:20;2.93;;;2.23;;
21593;SDS011;10959;51.328;7.322;2022-10-22T09:11:50;4.13;;;2.40;;
21593;SDS011;10959;51.328;7.322;2022-10-22T09:14:17;4.90;;;2.00;;
21593;SDS011;10959;51.328;7.322;2022-10-22T09:16:57;5.33;;;2.63;;
21593;SDS011;10959;51.328;7.322;2022-10-22T09:19:39;6.13;;;2.50;;
21593;SDS011;10959;51.328;7.322;2022-10-22T09:22:20;4.90;;;2.30;;
21593;SDS011;10959;51.328;7.322;2022-10-22T09:24:56;3.13;;;2.27;;
21593;SDS011;10959;51.328;7.322;2022-10-22T09:27:27;5.03;;;2.00;;
21593;SDS011;10959;51.328;7.322;2022-10-22T09:29:55;5.40;;;1.93;;
21593;SDS011;10959;51.328;7.322;2022-10-22T09:32:22;5.70;;;2.20;;
21593;SDS011;10959;51.328;7.322;2022-10-22T09:34:54;3.80;;;2.00;;
21593;SDS011;10959;51.328;7.322;2022-10-22T09:37:24;3.87;;;1.80;;
21593;SDS011;10959;51.328;7.322;2022-10-22T09:39:53;4.67;;;2.10;;
21593;SDS011;10959;51.328;7.322;2022-10-22T09:42:21;7.40;;;2.10;;
21593;SDS011;10959;51.328;7.322;2022-10-22T09:44:50;6.97;;;1.90;;
21593;SDS011;10959;51.328;7.322;2022-10-22T09:47:25;3.33;;;1.90;;
21593;SDS011;10959;51.328;7.322;2022-10-22T09:50:05;8.00;;;2.07;;
21593;SDS011;10959;51.328;7.322;2022-10-22T09:52:42;3.20;;;2.10;;
21593;SDS011;10959;51.328;7.322;2022-10-22T09:55:12;5.07;;;1.80;;
21593;SDS011;10959;51.328;7.322;2022-10-22T09:57:39;3.97;;;1.80;;
21593;SDS011;10959;51.328;7.322;2022-10-22T10:00:07;3.30;;;1.97;;
21593;SDS011;10959;51.328;7.322;2022-10-22T10:02:34;5.90;;;2.30;;
21593;SDS011;10959;51.328;7.322;2022-10-22T10:05:07;7.47;;;2.00;;
21593;SDS011;10959;51.328;7.322;2022-10-22T10:07:42;5.03;;;2.30;;
21593;SDS011;10959;51.328;7.322;2022-10-22T10:10:25;4.10;;;1.63;;
21593;SDS011;10959;51.328;7.322;2022-10-22T10:13:00;5.00;;;1.90;;
21593;SDS011;10959;51.328;7.322;2022-10-22T10:15:33;6.47;;;1.87;;
21593;SDS011;10959;51.328;7.322;2022-10-22T10:18:09;5.47;;;1.87;;
21593;SDS011;10959;51.328;7.322;2022-10-22T10:20:50;3.40;;;1.77;;
21593;SDS011;10959;51.328;7.322;2022-10-22T10:23:24;4.20;;;1.90;;
21593;SDS011;10959;51.328;7.322;2022-10-22T10:26:00;4.40;;;1.60;;
21593;SDS011;10959;51.328;7.322;2022-10-22T10:28:38;4.13;;;1.53;;
21593;SDS011;10959;51.328;7.322;2022-10-22T10:31:14;5.83;;;1.93;;
21593;SDS011;10959;51.328;7.322;2022-10-22T10:33:46;7.60;;;2.40;;
21593;SDS011;10959;51.328;7.322;2022-10-22T10:36:24;8.57;;;1.97;;
21593;SDS011;10959;51.328;7.322;2022-10-22T10:38:57;5.73;;;2.17;;
21593;SDS011;10959;51.328;7.322;2022-10-22T10:41:32;4.80;;;2.20;;
21593;SDS011;10959;51.328;7.322;2022-10-22T10:47:13;4.53;;;1.50;;
21593;SDS011;10959;51.328;7.322;2022-10-22T10:49:50;6.37;;;2.30;;
21593;SDS011;10959;51.328;7.322;2022-10-22T10:52:25;4.57;;;2.03;;
21593;SDS011;10959;51.328;7.322;2022-10-22T10:55:00;3.43;;;1.90;;
21593;SDS011;10959;51.328;7.322;2022-10-22T10:57:38;4.37;;;1.43;;
21593;SDS011;10959;51.328;7.322;2022-10-22T11:00:13;4.93;;;1.67;;
21593;SDS011;10959;51.328;7.322;2022-10-22T11:02:55;7.20;;;2.00;;
21593;SDS011;10959;51.328;7.322;2022-10-22T11:05:37;5.33;;;2.07;;
21593;SDS011;10959;51.328;7.322;2022-10-22T11:08:07;4.77;;;1.97;;
21593;SDS011;10959;51.328;7.322;2022-10-22T11:10:39;3.73;;;1.50;;
21593;SDS011;10959;51.328;7.322;2022-10-22T11:13:12;5.00;;;1.60;;
21593;SDS011;10959;51.328;7.322;2022-10-22T11:15:46;4.67;;;1.53;;
21593;SDS011;10959;51.328;7.322;2022-10-22T11:18:19;3.83;;;1.53;;
21593;SDS011;10959;51.328;7.322;2022-10-22T11:20:52;2.57;;;1.20;;
21593;SDS011;10959;51.328;7.322;2022-10-22T11:23:29;3.00;;;1.20;;
21593;SDS011;10959;51.328;7.322;2022-10-22T11:25:59;3.87;;;1.20;;
21593;SDS011;10959;51.328;7.322;2022-10-22T11:28:28;3.43;;;1.17;;
21593;SDS011;10959;51.328;7.322;2022-10-22T11:30:59;3.37;;;1.40;;
21593;SDS011;10959;51.328;7.322;2022-10-22T11:33:32;3.63;;;1.80;;
21593;SDS011;10959;51.328;7.322;2022-10-22T11:36:07;4.53;;;1.87;;
21593;SDS011;10959;51.328;7.322;2022-10-22T11:38:37;4.37;;;1.73;;
21593;SDS011;10959;51.328;7.322;2022-10-22T11:41:04;5.37;;;1.60;;
21593;SDS011;10959;51.328;7.322;2022-10-22T11:43:50;4.00;;;1.30;;
21593;SDS011;10959;51.328;7.322;2022-10-22T11:46:25;2.10;;;1.20;;
21593;SDS011;10959;51.328;7.322;2022-10-22T11:49:03;3.80;;;1.30;;
21593;SDS011;10959;51.328;7.322;2022-10-22T11:51:42;4.07;;;1.10;;
21593;SDS011;10959;51.328;7.322;2022-10-22T11:54:27;4.73;;;1.50;;
21593;SDS011;10959;51.328;7.322;2022-10-22T11:56:56;3.50;;;1.10;;
21593;SDS011;10959;51.328;7.322;2022-10-22T11:59:38;3.20;;;1.13;;
21593;SDS011;10959;51.328;7.322;2022-10-22T12:04:48;3.83;;;1.37;;
21593;SDS011;10959;51.328;7.322;2022-10-22T12:10:18;5.43;;;1.63;;
21593;SDS011;10959;51.328;7.322;2022-10-22T12:12:51;5.33;;;1.50;;
21593;SDS011;10959;51.328;7.322;2022-10-22T12:15:22;3.37;;;1.13;;
21593;SDS011;10959;51.328;7.322;2022-10-22T12:17:55;3.03;;;1.13;;
21593;SDS011;10959;51.328;7.322;2022-10-22T12:20:24;3.70;;;0.90;;
21593;SDS011;10959;51.328;7.322;2022-10-22T12:22:52;3.63;;;1.33;;
21593;SDS011;10959;51.328;7.322;2022-10-22T12:25:22;3.33;;;1.30;;
21593;SDS011;10959;51.328;7.322;2022-10-22T12:27:50;4.47;;;1.03;;
21593;SDS011;10959;51.328;7.322;2022-10-22T12:30:19;3.50;;;1.10;;
21593;SDS011;10959;51.328;7.322;2022-10-22T12:32:48;4.63;;;1.10;;
21593;SDS011;10959;51.328;7.322;2022-10-22T12:35:17;4.53;;;1.20;;
21593;SDS011;10959;51.328;7.322;2022-10-22T12:37:47;5.30;;;1.30;;
21593;SDS011;10959;51.328;7.322;2022-10-22T12:40:15;6.47;;;1.40;;
21593;SDS011;10959;51.328;7.322;2022-10-22T12:42:47;2.87;;;1.10;;
21593;SDS011;10959;51.328;7.322;2022-10-22T12:45:14;4.27;;;1.13;;
21593;SDS011;10959;51.328;7.322;2022-10-22T12:47:44;2.33;;;1.13;;
21593;SDS011;10959;51.328;7.322;2022-10-22T12:50:14;3.17;;;1.07;;
21593;SDS011;10959;51.328;7.322;2022-10-22T12:52:43;2.37;;;1.20;;
21593;SDS011;10959;51.328;7.322;2022-10-22T12:55:13;2.90;;;1.00;;
21593;SDS011;10959;51.328;7.322;2022-10-22T12:57:41;4.20;;;1.07;;
21593;SDS011;10959;51.328;7.322;2022-10-22T13:00:19;3.47;;;1.27;;
21593;SDS011;10959;51.328;7.322;2022-10-22T13:02:48;2.80;;;1.17;;
21593;SDS011;10959;51.328;7.322;2022-10-22T13:05:16;3.33;;;0.93;;
21593;SDS011;10959;51.328;7.322;2022-10-22T13:07:48;1.97;;;0.80;;
21593;SDS011;10959;51.328;7.322;2022-10-22T13:10:17;2.77;;;0.97;;
21593;SDS011;10959;51.328;7.322;2022-10-22T13:12:48;2.07;;;1.00;;
21593;SDS011;10959;51.328;7.322;2022-10-22T13:15:17;4.53;;;1.20;;
21593;SDS011;10959;51.328;7.322;2022-10-22T13:17:47;5.40;;;1.47;;
21593;SDS011;10959;51.328;7.322;2022-10-22T13:20:16;2.87;;;1.17;;
21593;SDS011;10959;51.328;7.322;2022-10-22T13:22:54;3.23;;;0.70;;
21593;SDS011;10959;51.328;7.322;2022-10-22T13:25:24;1.93;;;0.93;;
21593;SDS011;10959;51.328;7.322;2022-10-22T13:27:53;4.97;;;1.20;;
21593;SDS011;10959;51.328;7.322;2022-10-22T13:30:24;3.37;;;1.30;;
21593;SDS011;10959;51.328;7.322;2022-10-22T13:32:52;3.93;;;1.23;;
21593;SDS011;10959;51.328;7.322;2022-10-22T13:35:22;3.83;;;1.63;;
21593;SDS011;10959;51.328;7.322;2022-10-22T13:37:50;5.20;;;2.57;;
21593;SDS011;10959;51.328;7.322;2022-10-22T13:40:17;6.43;;;2.50;;
21593;SDS011;10959;51.328;7.322;2022-10-22T13:42:44;3.57;;;1.50;;
21593;SDS011;10959;51.328;7.322;2022-10-22T13:45:10;3.37;;;1.40;;
21593;SDS011;10959;51.328;7.322;2022-10-22T13:47:38;3.80;;;1.17;;
21593;SDS011;10959;51.328;7.322;2022-10-22T13:50:09;2.10;;;0.93;;
21593;SDS011;10959;51.328;7.322;2022-10-22T13:52:39;2.77;;;1.00;;
21593;SDS011;10959;51.328;7.322;2022-10-22T13:55:14;3.77;;;1.07;;
21593;SDS011;10959;51.328;7.322;2022-10-22T13:57:42;3.43;;;1.17;;
21593;SDS011;10959;51.328;7.322;2022-10-22T14:00:13;2.50;;;1.20;;
21593;SDS011;10959;51.328;7.322;2022-10-22T14:02:42;3.43;;;0.97;;
21593;SDS011;10959;51.328;7.322;2022-10-22T14:05:09;2.73;;;1.00;;
21593;SDS011;10959;51.328;7.322;2022-10-22T14:07:37;5.00;;;1.10;;
21593;SDS011;10959;51.328;7.322;2022-10-22T14:10:08;4.03;;;1.40;;
21593;SDS011;10959;51.328;7.322;2022-10-22T14:12:39;4.50;;;1.10;;
21593;SDS011;10959;51.328;7.322;2022-10-22T14:15:06;1.97;;;1.03;;
21593;SDS011;10959;51.328;7.322;2022-10-22T14:17:33;1.67;;;1.00;;
21593;SDS011;10959;51.328;7.322;2022-10-22T14:20:01;3.10;;;1.10;;
21593;SDS011;10959;51.328;7.322;2022-10-22T14:22:28;2.93;;;1.10;;
21593;SDS011;10959;51.328;7.322;2022-10-22T14:24:55;1.60;;;0.80;;
21593;SDS011;10959;51.328;7.322;2022-10-22T14:27:22;2.67;;;0.87;;
21593;SDS011;10959;51.328;7.322;2022-10-22T14:29:48;3.23;;;1.00;;
21593;SDS011;10959;51.328;7.322;2022-10-22T14:32:15;2.33;;;0.90;;
21593;SDS011;10959;51.328;7.322;2022-10-22T14:34:44;3.83;;;1.03;;
21593;SDS011;10959;51.328;7.322;2022-10-22T14:37:14;2.07;;;1.00;;
21593;SDS011;10959;51.328;7.322;2022-10-22T14:39:43;5.33;;;1.20;;
21593;SDS011;10959;51.328;7.322;2022-10-22T14:42:15;4.53;;;1.03;;
21593;SDS011;10959;51.328;7.322;2022-10-22T14:44:42;3.77;;;1.10;;
21593;SDS011;10959;51.328;7.322;2022-10-22T14:47:08;3.63;;;1.27;;
21593;SDS011;10959;51.328;7.322;2022-10-22T14:49:35;2.63;;;1.10;;
21593;SDS011;10959;51.328;7.322;2022-10-22T14:52:01;3.13;;;1.27;;
21593;SDS011;10959;51.328;7.322;2022-10-22T14:54:29;4.00;;;1.00;;
21593;SDS011;10959;51.328;7.322;2022-10-22T14:56:57;3.43;;;1.20;;
21593;SDS011;10959;51.328;7.322;2022-10-22T14:59:23;3.10;;;1.17;;
21593;SDS011;10959;51.328;7.322;2022-10-22T15:01:50;4.87;;;1.13;;
21593;SDS011;10959;51.328;7.322;2022-10-22T15:04:16;3.23;;;1.43;;
21593;SDS011;10959;51.328;7.322;2022-10-22T15:06:42;3.33;;;1.40;;
21593;SDS011;10959;51.328;7.322;2022-10-22T15:09:09;3.90;;;1.57;;
21593;SDS011;10959;51.328;7.322;2022-10-22T15:11:37;2.93;;;1.57;;